Time;durP1;ratioP1;P1;durP2;ratioP2;P2;SDS_P1;SDS_P2;PMS_P1;PMS_P2;Temp;Humidity;BMP_temperature;BMP_pressure;BME280_temperature;BME280_humidity;BME280_pressure;Samples;Min_cycle;Max_cycle;Signal;HPM_P1;HPM_P2
2021/08/27 00:01:34;;;;;;;13.88;4.55;;;13.70;99.90;;;;;;5033377;28;20060;-60
2021/08/27 00:04:00;;;;;;;12.13;4.20;;;13.70;99.90;;;;;;5048492;28;20033;-58
2021/08/27 00:06:25;;;;;;;21.10;4.80;;;13.70;99.90;;;;;;5032873;28;20041;-64
2021/08/27 00:08:51;;;;;;;12.98;4.30;;;13.70;99.90;;;;;;5033319;28;20049;-62
2021/08/27 00:11:17;;;;;;;14.35;4.35;;;13.60;99.90;;;;;;5032438;28;20161;-61
2021/08/27 00:13:44;;;;;;;13.90;3.95;;;13.60;99.90;;;;;;5033089;28;20114;-60
2021/08/27 00:16:10;;;;;;;9.65;3.97;;;13.60;99.90;;;;;;5032746;28;20147;-61
2021/08/27 00:18:36;;;;;;;18.35;4.45;;;13.70;99.90;;;;;;5033033;28;20041;-59
2021/08/27 00:21:02;;;;;;;13.65;4.22;;;13.70;99.90;;;;;;5032119;28;20025;-60
2021/08/27 00:23:27;;;;;;;14.82;4.18;;;13.60;99.90;;;;;;5033111;28;20395;-60
2021/08/27 00:25:53;;;;;;;11.95;4.03;;;13.70;99.90;;;;;;5031948;28;20365;-63
2021/08/27 00:28:19;;;;;;;11.75;4.70;;;13.70;99.90;;;;;;5032505;28;20625;-62
2021/08/27 00:30:44;;;;;;;10.65;4.07;;;13.70;99.90;;;;;;5032126;28;20053;-61
2021/08/27 00:33:10;;;;;;;12.57;3.88;;;13.70;99.90;;;;;;5032665;28;20045;-59
2021/08/27 00:35:36;;;;;;;13.43;3.92;;;13.80;99.90;;;;;;5031840;28;20030;-58
2021/08/27 00:38:02;;;;;;;14.93;4.10;;;13.80;99.90;;;;;;5032692;28;20076;-61
2021/08/27 00:40:28;;;;;;;16.17;3.95;;;13.80;99.90;;;;;;5032062;28;20061;-60
2021/08/27 00:42:53;;;;;;;13.65;3.88;;;13.90;99.90;;;;;;5064821;28;20560;-61
2021/08/27 00:45:19;;;;;;;14.05;4.13;;;13.80;99.90;;;;;;5032038;28;20485;-61
2021/08/27 00:47:45;;;;;;;14.15;4.20;;;13.80;99.90;;;;;;5032623;28;20033;-60
2021/08/27 00:50:11;;;;;;;15.82;4.30;;;13.80;99.90;;;;;;5031578;28;20030;-60
2021/08/27 00:52:37;;;;;;;15.73;4.45;;;13.80;99.90;;;;;;5032692;28;20062;-60
2021/08/27 00:55:04;;;;;;;13.30;4.13;;;13.80;99.90;;;;;;5031327;28;20466;-60
2021/08/27 00:57:29;;;;;;;14.73;4.30;;;13.80;99.90;;;;;;5032496;28;20048;-60
2021/08/27 00:59:55;;;;;;;13.32;4.28;;;13.80;99.90;;;;;;5031601;28;20472;-60
2021/08/27 01:02:21;;;;;;;13.60;4.38;;;13.80;99.90;;;;;;5032143;28;20554;-61
2021/08/27 01:04:48;;;;;;;16.20;4.18;;;13.70;99.90;;;;;;5031924;28;20083;-59
2021/08/27 01:07:18;;;;;;;15.60;4.30;;;13.80;99.90;;;;;;5032067;28;20064;-61
2021/08/27 01:10:03;;;;;;;16.42;4.45;;;13.90;99.90;;;;;;5031741;28;20034;-58
2021/08/27 01:12:51;;;;;;;14.43;3.93;;;13.80;99.90;;;;;;5032223;28;20104;-58
2021/08/27 01:15:46;;;;;;;16.40;4.93;;;13.80;99.90;;;;;;5031242;28;20685;-60
2021/08/27 01:18:34;;;;;;;13.23;4.93;;;13.80;99.90;;;;;;5022732;28;20068;-60
2021/08/27 01:21:21;;;;;;;17.02;4.65;;;13.80;99.90;;;;;;5031267;28;20095;-60
2021/08/27 01:23:54;;;;;;;13.70;4.53;;;13.90;99.90;;;;;;5018797;28;20033;-59
2021/08/27 01:26:24;;;;;;;14.30;4.55;;;13.80;99.90;;;;;;5031347;28;20488;-60
2021/08/27 01:28:51;;;;;;;16.70;4.60;;;13.90;99.90;;;;;;5031292;28;20115;-59
2021/08/27 01:31:34;;;;;;;15.95;4.82;;;13.80;99.90;;;;;;5030797;28;20036;-60
2021/08/27 01:34:24;;;;;;;14.15;4.07;;;13.80;99.90;;;;;;5031503;28;20055;-62
2021/08/27 01:36:51;;;;;;;15.25;4.63;;;13.80;99.90;;;;;;5031006;28;20036;-60
2021/08/27 01:39:18;;;;;;;9.95;3.88;;;13.80;99.90;;;;;;5031525;28;20029;-59
2021/08/27 01:41:49;;;;;;;16.95;4.35;;;13.80;99.90;;;;;;5030748;28;20470;-61
2021/08/27 01:44:16;;;;;;;16.92;4.63;;;13.80;99.90;;;;;;5046789;28;20491;-59
2021/08/27 01:46:44;;;;;;;12.55;4.22;;;13.80;99.90;;;;;;5030640;28;20021;-59
2021/08/27 01:49:11;;;;;;;13.48;4.65;;;13.80;99.90;;;;;;5031260;28;20033;-60
2021/08/27 01:51:39;;;;;;;12.15;4.10;;;13.80;99.90;;;;;;5030354;28;20017;-59
2021/08/27 01:54:06;;;;;;;18.02;4.72;;;13.80;99.90;;;;;;5031704;28;20455;-60
2021/08/27 01:56:33;;;;;;;18.83;4.55;;;13.90;99.90;;;;;;5030348;28;20044;-60
2021/08/27 01:59:00;;;;;;;15.68;4.20;;;13.80;99.90;;;;;;5031635;28;20084;-59
2021/08/27 02:01:27;;;;;;;19.15;4.55;;;13.90;99.90;;;;;;5030333;28;20057;-60
2021/08/27 02:03:54;;;;;;;10.10;3.95;;;13.90;99.90;;;;;;5031451;28;20112;-60
2021/08/27 02:06:21;;;;;;;13.63;4.15;;;13.80;99.90;;;;;;5030560;28;20326;-61
2021/08/27 02:08:48;;;;;;;18.10;4.38;;;13.80;99.90;;;;;;5031105;28;20052;-59
2021/08/27 02:11:15;;;;;;;12.57;3.97;;;13.80;99.90;;;;;;5030237;28;20029;-60
2021/08/27 02:13:42;;;;;;;17.85;4.20;;;13.80;99.90;;;;;;5030809;28;20029;-59
2021/08/27 02:16:09;;;;;;;13.32;4.38;;;13.80;99.90;;;;;;5030188;28;20040;-60
2021/08/27 02:18:35;;;;;;;18.25;5.20;;;13.90;99.90;;;;;;5030918;28;20368;-59
2021/08/27 02:21:04;;;;;;;20.38;4.65;;;13.80;99.90;;;;;;5030122;28;20174;-61
2021/08/27 02:23:32;;;;;;;13.27;4.43;;;13.90;99.90;;;;;;5030637;28;20026;-62
2021/08/27 02:25:59;;;;;;;18.52;4.35;;;13.90;99.90;;;;;;5029993;28;20393;-60
2021/08/27 02:28:26;;;;;;;13.23;4.47;;;13.90;99.90;;;;;;5031196;28;20053;-60
2021/08/27 02:30:54;;;;;;;16.02;4.25;;;13.90;99.90;;;;;;5030173;28;20148;-61
2021/08/27 02:33:21;;;;;;;19.23;4.65;;;13.90;99.90;;;;;;5030884;28;20368;-60
2021/08/27 02:35:48;;;;;;;15.07;4.57;;;13.90;99.90;;;;;;5029842;28;20029;-60
2021/08/27 02:38:19;;;;;;;15.63;4.70;;;13.80;99.90;;;;;;5030913;28;20026;-60
2021/08/27 02:40:45;;;;;;;16.20;4.38;;;13.90;99.90;;;;;;5030367;28;20026;-60
2021/08/27 02:43:11;;;;;;;15.38;4.60;;;13.80;99.90;;;;;;5035337;28;20036;-60
2021/08/27 02:45:37;;;;;;;17.75;4.93;;;13.80;99.90;;;;;;5049466;28;20041;-59
2021/08/27 02:48:03;;;;;;;16.55;4.25;;;13.90;99.90;;;;;;5034864;28;20444;-60
2021/08/27 02:50:34;;;;;;;16.67;4.50;;;13.90;99.90;;;;;;5034292;28;20069;-61
2021/08/27 02:53:22;;;;;;;17.58;4.65;;;13.90;99.90;;;;;;5034482;28;20037;-59
2021/08/27 02:56:05;;;;;;;14.07;4.70;;;13.90;99.90;;;;;;5033960;28;20423;-59
2021/08/27 02:58:33;;;;;;;17.52;4.85;;;13.80;99.90;;;;;;5035196;28;20037;-60
2021/08/27 03:00:59;;;;;;;16.42;4.65;;;13.90;99.90;;;;;;5033717;28;20116;-62
2021/08/27 03:03:29;;;;;;;13.52;4.70;;;13.90;99.90;;;;;;5034777;28;20105;-60
2021/08/27 03:06:29;;;;;;;11.35;4.45;;;13.90;99.90;;;;;;5033760;28;20037;-60
2021/08/27 03:09:03;;;;;;;14.80;4.18;;;13.90;99.90;;;;;;5034289;28;20041;-59
2021/08/27 03:11:35;;;;;;;15.20;4.70;;;13.90;99.90;;;;;;5033608;28;20051;-61
2021/08/27 03:14:14;;;;;;;14.70;4.38;;;13.90;99.90;;;;;;5034847;28;20038;-59
2021/08/27 03:16:44;;;;;;;17.20;4.82;;;13.90;99.90;;;;;;5033199;28;20108;-60
2021/08/27 03:19:42;;;;;;;16.13;4.63;;;13.90;99.90;;;;;;5034348;28;20033;-60
2021/08/27 03:22:23;;;;;;;15.98;5.07;;;13.90;99.90;;;;;;5022850;28;20045;-60
2021/08/27 03:25:00;;;;;;;17.45;4.50;;;13.90;99.90;;;;;;5034259;28;20065;-60
2021/08/27 03:27:36;;;;;;;15.80;4.32;;;13.90;99.90;;;;;;5032989;28;20372;-59
2021/08/27 03:30:06;;;;;;;15.13;4.88;;;13.90;99.90;;;;;;5034155;28;20636;-59
2021/08/27 03:32:32;;;;;;;17.67;4.78;;;13.90;99.90;;;;;;5033021;28;20029;-59
2021/08/27 03:35:00;;;;;;;20.50;4.97;;;13.90;99.90;;;;;;5033950;28;20037;-60
2021/08/27 03:37:26;;;;;;;12.10;4.38;;;13.90;99.90;;;;;;5032789;28;20053;-59
2021/08/27 03:39:52;;;;;;;18.10;5.00;;;13.80;99.90;;;;;;5033832;28;20372;-60
2021/08/27 03:42:20;;;;;;;18.77;4.80;;;13.90;99.90;;;;;;5032844;28;20037;-60
2021/08/27 03:44:47;;;;;;;14.85;4.40;;;13.90;99.90;;;;;;5033922;28;20067;-59
2021/08/27 03:47:15;;;;;;;17.70;4.88;;;13.90;99.90;;;;;;5033102;28;20034;-59
2021/08/27 03:49:41;;;;;;;15.10;4.65;;;13.80;99.90;;;;;;5033913;28;20041;-60
2021/08/27 03:52:08;;;;;;;16.98;4.70;;;13.90;99.90;;;;;;5032313;28;20037;-61
2021/08/27 03:54:34;;;;;;;18.67;4.93;;;13.90;99.90;;;;;;5033402;28;20602;-61
2021/08/27 03:57:02;;;;;;;19.88;5.32;;;13.90;99.90;;;;;;5032721;28;20037;-60
2021/08/27 03:59:29;;;;;;;20.80;5.55;;;13.80;99.90;;;;;;5033447;28;20113;-60
2021/08/27 04:01:55;;;;;;;14.30;5.00;;;13.80;99.90;;;;;;5032740;28;20033;-59
2021/08/27 04:04:22;;;;;;;19.75;5.00;;;13.80;99.90;;;;;;5033377;28;20025;-60
2021/08/27 04:06:55;;;;;;;16.95;5.15;;;13.80;99.90;;;;;;5032454;28;20092;-63
2021/08/27 04:09:22;;;;;;;15.32;4.85;;;13.80;99.90;;;;;;5033255;28;20029;-59
2021/08/27 04:11:47;;;;;;;22.83;5.93;;;13.80;99.90;;;;;;5046423;28;20017;-60
2021/08/27 04:14:13;;;;;;;12.23;4.75;;;13.80;99.90;;;;;;5033440;28;20029;-59
2021/08/27 04:16:42;;;;;;;15.68;5.10;;;13.90;99.90;;;;;;5032567;28;20037;-59
2021/08/27 04:19:08;;;;;;;16.13;5.95;;;13.90;99.90;;;;;;5033282;28;20471;-60
2021/08/27 04:21:34;;;;;;;20.85;5.20;;;13.80;99.90;;;;;;5032156;28;20464;-60
2021/08/27 04:24:00;;;;;;;19.13;5.63;;;13.80;99.90;;;;;;5033118;28;20030;-60
2021/08/27 04:26:26;;;;;;;19.55;5.38;;;13.80;99.90;;;;;;5031991;28;20025;-60
2021/08/27 04:28:51;;;;;;;23.70;5.28;;;13.80;99.90;;;;;;5032068;28;20103;-60
2021/08/27 04:31:17;;;;;;;20.67;5.70;;;13.80;99.90;;;;;;5032323;28;20476;-60
2021/08/27 04:33:43;;;;;;;15.68;6.68;;;13.80;99.90;;;;;;5032784;28;20117;-59
2021/08/27 04:36:09;;;;;;;25.58;5.78;;;13.80;99.90;;;;;;5047579;28;20060;-60
2021/08/27 04:38:34;;;;;;;16.58;5.78;;;13.80;99.90;;;;;;5032677;28;20037;-60
2021/08/27 04:41:00;;;;;;;18.08;5.63;;;13.80;99.90;;;;;;5032074;28;20033;-60
2021/08/27 04:43:26;;;;;;;17.27;5.50;;;13.80;99.90;;;;;;5032505;28;20082;-61
2021/08/27 04:45:51;;;;;;;18.58;5.88;;;13.80;99.90;;;;;;5032328;28;20090;-60
2021/08/27 04:48:18;;;;;;;17.65;5.55;;;13.80;99.90;;;;;;5032003;28;20027;-61
2021/08/27 04:50:44;;;;;;;21.55;5.80;;;13.70;99.90;;;;;;5032556;28;20038;-60
2021/08/27 04:53:10;;;;;;;24.77;5.90;;;13.70;99.90;;;;;;5031344;28;20033;-60
2021/08/27 04:55:35;;;;;;;21.77;6.43;;;13.70;99.90;;;;;;5032482;28;20049;-61
2021/08/27 04:58:01;;;;;;;15.43;5.47;;;13.70;99.90;;;;;;5031546;28;20111;-60
2021/08/27 05:00:27;;;;;;;20.10;4.85;;;13.70;99.90;;;;;;5032297;28;20029;-60
2021/08/27 05:02:52;;;;;;;22.65;6.32;;;13.70;99.90;;;;;;5031207;28;20025;-58
2021/08/27 05:05:18;;;;;;;13.88;4.95;;;13.80;99.90;;;;;;5031741;28;20040;-58
2021/08/27 05:07:44;;;;;;;18.67;5.68;;;13.70;99.90;;;;;;5046847;28;20037;-61
2021/08/27 05:10:10;;;;;;;19.23;5.82;;;13.70;99.90;;;;;;5032115;28;20466;-61
2021/08/27 05:12:36;;;;;;;15.50;5.55;;;13.70;99.90;;;;;;5046849;28;20399;-60
2021/08/27 05:15:02;;;;;;;16.58;5.18;;;13.70;99.90;;;;;;5032007;28;20112;-60
2021/08/27 05:17:28;;;;;;;24.13;6.30;;;13.70;99.90;;;;;;5031244;28;20116;-60
2021/08/27 05:19:54;;;;;;;18.92;5.43;;;13.70;99.90;;;;;;5031794;28;20112;-60
2021/08/27 05:22:20;;;;;;;17.33;5.43;;;13.60;99.90;;;;;;5031295;28;20474;-59
2021/08/27 05:24:45;;;;;;;17.65;5.30;;;13.60;99.90;;;;;;5031700;28;20042;-59
2021/08/27 05:27:11;;;;;;;17.88;6.03;;;13.70;99.90;;;;;;5030752;28;20061;-60
2021/08/27 05:29:37;;;;;;;17.23;5.45;;;13.70;99.90;;;;;;5031729;28;20046;-61
2021/08/27 05:32:03;;;;;;;20.02;5.60;;;13.70;99.90;;;;;;5030825;28;20286;-61
2021/08/27 05:34:29;;;;;;;17.58;5.82;;;13.70;99.90;;;;;;5031580;28;20041;-59
2021/08/27 05:36:54;;;;;;;20.98;6.00;;;13.70;99.90;;;;;;5031049;28;20037;-59
2021/08/27 05:39:20;;;;;;;15.13;5.90;;;13.60;99.90;;;;;;5031369;28;20026;-58
2021/08/27 05:41:46;;;;;;;12.70;5.53;;;13.60;99.90;;;;;;5030911;28;20026;-59
2021/08/27 05:44:12;;;;;;;17.98;5.78;;;13.60;99.90;;;;;;5031656;28;20029;-60
2021/08/27 05:46:37;;;;;;;21.27;6.25;;;13.60;99.90;;;;;;5030998;28;20025;-59
2021/08/27 05:49:03;;;;;;;22.17;6.15;;;13.60;99.90;;;;;;5031139;28;20036;-58
2021/08/27 05:51:29;;;;;;;18.42;5.88;;;13.60;99.90;;;;;;5030557;28;20103;-59
2021/08/27 05:53:54;;;;;;;20.17;6.10;;;13.60;99.90;;;;;;5046431;28;20550;-60
2021/08/27 05:56:20;;;;;;;21.77;6.53;;;13.60;99.90;;;;;;5031056;28;20021;-59
2021/08/27 05:58:47;;;;;;;19.17;5.45;;;13.60;99.90;;;;;;5030953;28;20057;-60
2021/08/27 06:01:14;;;;;;;22.13;5.70;;;13.70;99.90;;;;;;5031208;28;20025;-59
2021/08/27 06:03:40;;;;;;;19.08;5.55;;;13.60;99.90;;;;;;5030696;28;20113;-61
2021/08/27 06:06:06;;;;;;;20.35;6.10;;;13.70;99.90;;;;;;5030630;28;20108;-58
2021/08/27 06:08:31;;;;;;;27.05;6.18;;;13.70;99.90;;;;;;5030590;28;20052;-59
2021/08/27 06:10:57;;;;;;;16.85;5.32;;;13.90;99.90;;;;;;5031631;28;20065;-59
2021/08/27 06:13:23;;;;;;;18.67;5.82;;;13.90;99.90;;;;;;5029966;28;20443;-61
2021/08/27 06:15:48;;;;;;;19.70;5.50;;;13.90;99.90;;;;;;5030958;28;20035;-58
2021/08/27 06:18:14;;;;;;;20.52;5.53;;;14.00;99.90;;;;;;5030241;28;20029;-62
2021/08/27 06:20:40;;;;;;;19.20;6.07;;;14.00;99.90;;;;;;5031087;28;20418;-59
2021/08/27 06:23:05;;;;;;;21.80;5.18;;;14.10;99.90;;;;;;5029863;28;20036;-61
2021/08/27 06:25:31;;;;;;;17.67;5.57;;;14.10;99.90;;;;;;5030863;28;20097;-61
2021/08/27 06:27:57;;;;;;;20.52;5.70;;;14.20;99.90;;;;;;5029938;28;20053;-59
2021/08/27 06:30:23;;;;;;;19.55;5.57;;;14.20;99.90;;;;;;5030723;28;20554;-61
2021/08/27 06:32:48;;;;;;;13.15;5.03;;;14.10;99.90;;;;;;5030460;28;20087;-60
2021/08/27 06:35:15;;;;;;;20.80;5.68;;;14.20;99.90;;;;;;5030836;28;20038;-60
2021/08/27 06:40:24;;;;;;;21.02;6.40;;;14.20;99.90;;;;;;5030828;28;20116;-60
2021/08/27 06:42:50;;;;;;;13.98;5.00;;;14.20;99.90;;;;;;5029755;28;20116;-59
2021/08/27 06:45:16;;;;;;;22.73;6.13;;;14.20;99.90;;;;;;5030845;28;20087;-61
2021/08/27 06:47:41;;;;;;;16.60;5.55;;;14.20;99.90;;;;;;5030121;28;20431;-62
2021/08/27 06:50:07;;;;;;;19.23;5.53;;;14.30;99.90;;;;;;5030491;28;20061;-62
2021/08/27 06:52:33;;;;;;;23.83;5.38;;;14.30;99.90;;;;;;5029892;28;20026;-60
2021/08/27 06:54:59;;;;;;;27.33;7.65;;;14.40;99.90;;;;;;5030816;28;20503;-61
2021/08/27 06:57:25;;;;;;;14.48;5.05;;;14.40;99.90;;;;;;5029546;28;20072;-61
2021/08/27 06:59:50;;;;;;;24.25;5.75;;;14.50;99.90;;;;;;5030370;28;20052;-60
2021/08/27 07:02:16;;;;;;;27.30;5.63;;;14.50;99.90;;;;;;5029933;28;20075;-60
2021/08/27 07:04:42;;;;;;;21.85;5.47;;;14.60;99.90;;;;;;5030251;28;20033;-61
2021/08/27 07:07:08;;;;;;;19.20;5.63;;;14.50;99.90;;;;;;5030237;28;20048;-59
2021/08/27 07:09:33;;;;;;;16.63;4.80;;;14.60;99.90;;;;;;5030196;28;20051;-58
2021/08/27 07:11:59;;;;;;;25.25;6.30;;;14.60;99.90;;;;;;5029569;28;20033;-59
2021/08/27 07:14:25;;;;;;;25.50;6.28;;;14.70;99.90;;;;;;5029946;28;20076;-60
2021/08/27 07:16:50;;;;;;;26.88;6.90;;;14.80;99.90;;;;;;5029923;28;20033;-60
2021/08/27 07:19:16;;;;;;;17.33;5.32;;;14.90;99.90;;;;;;5029293;28;20026;-58
2021/08/27 07:21:42;;;;;;;16.20;6.15;;;15.00;99.90;;;;;;5030117;28;20591;-59
2021/08/27 07:24:07;;;;;;;21.42;5.30;;;15.10;99.90;;;;;;5061578;28;20475;-61
2021/08/27 07:26:33;;;;;;;16.67;4.93;;;15.10;99.90;;;;;;5030657;28;20163;-59
2021/08/27 07:28:59;;;;;;;20.90;5.03;;;15.10;99.90;;;;;;5033123;28;20041;-60
2021/08/27 07:31:24;;;;;;;24.48;5.00;;;15.10;99.90;;;;;;5033873;28;20029;-60
2021/08/27 07:33:50;;;;;;;37.72;6.72;;;15.20;99.90;;;;;;5032962;28;20029;-61
2021/08/27 07:36:16;;;;;;;39.10;6.85;;;15.10;99.90;;;;;;5034102;28;20535;-61
2021/08/27 07:38:42;;;;;;;27.98;6.25;;;15.10;99.90;;;;;;5033137;28;20028;-61
2021/08/27 07:41:07;;;;;;;16.27;4.95;;;15.30;99.90;;;;;;5033599;28;20426;-61
2021/08/27 07:43:33;;;;;;;23.95;4.88;;;15.40;99.90;;;;;;5033088;28;20033;-60
2021/08/27 07:45:59;;;;;;;15.85;4.80;;;15.60;99.90;;;;;;5034018;28;20403;-60
2021/08/27 07:48:27;;;;;;;17.73;4.18;;;15.90;99.90;;;;;;5032694;28;20489;-61
2021/08/27 07:50:53;;;;;;;21.95;4.53;;;16.00;99.90;;;;;;5033653;28;20056;-60
2021/08/27 07:53:19;;;;;;;18.45;4.75;;;16.10;99.90;;;;;;5032822;28;20071;-60
2021/08/27 07:55:46;;;;;;;17.13;4.63;;;16.10;99.90;;;;;;5033437;28;20044;-59
2021/08/27 07:58:12;;;;;;;19.30;4.22;;;16.10;99.90;;;;;;5032527;28;20084;-59
2021/08/27 08:00:37;;;;;;;15.57;3.80;;;16.10;99.90;;;;;;5033539;28;20071;-60
2021/08/27 08:03:03;;;;;;;17.90;4.53;;;16.10;99.90;;;;;;5032621;28;20041;-60
2021/08/27 08:05:29;;;;;;;17.63;4.22;;;16.40;99.90;;;;;;5033377;28;20033;-60
2021/08/27 08:07:55;;;;;;;10.75;4.05;;;16.60;99.90;;;;;;5032461;28;20037;-60
2021/08/27 08:10:20;;;;;;;14.18;4.07;;;16.80;99.90;;;;;;5033348;28;20029;-60
2021/08/27 08:12:46;;;;;;;21.85;4.63;;;17.20;99.90;;;;;;5032303;28;20471;-59
2021/08/27 08:15:12;;;;;;;21.63;4.95;;;17.20;99.90;;;;;;5032763;28;20076;-62
2021/08/27 08:17:38;;;;;;;16.67;4.25;;;17.20;99.90;;;;;;5032648;28;20033;-59
2021/08/27 08:20:04;;;;;;;19.55;4.38;;;17.10;99.90;;;;;;5032234;28;20078;-60
2021/08/27 08:22:30;;;;;;;22.17;4.80;;;17.10;99.90;;;;;;5032768;28;20034;-60
2021/08/27 08:24:56;;;;;;;18.45;4.22;;;17.10;99.90;;;;;;5032568;28;20034;-59
2021/08/27 08:27:22;;;;;;;19.02;4.53;;;16.90;99.90;;;;;;5032862;28;20028;-60
2021/08/27 08:29:48;;;;;;;21.38;4.40;;;16.70;99.90;;;;;;5031640;28;20491;-60
2021/08/27 08:32:14;;;;;;;29.95;4.70;;;16.50;99.90;;;;;;5032765;28;20031;-59
2021/08/27 08:34:40;;;;;;;17.58;5.10;;;16.50;99.90;;;;;;5031932;28;20029;-61
2021/08/27 08:37:07;;;;;;;24.92;5.95;;;16.50;99.90;;;;;;5032598;28;20025;-59
2021/08/27 08:39:36;;;;;;;19.33;5.35;;;16.50;99.90;;;;;;5031742;28;20033;-59
2021/08/27 08:42:02;;;;;;;15.55;4.35;;;16.70;99.90;;;;;;5032577;28;20548;-59
2021/08/27 08:44:28;;;;;;;22.00;4.72;;;16.90;99.90;;;;;;5031635;28;20065;-61
2021/08/27 08:46:55;;;;;;;15.52;4.38;;;16.90;99.90;;;;;;5033139;28;20036;-59
2021/08/27 08:49:26;;;;;;;21.00;5.78;;;16.90;99.90;;;;;;5031591;28;20080;-61
2021/08/27 08:51:52;;;;;;;30.90;5.55;;;16.90;99.90;;;;;;5032684;28;20111;-61
2021/08/27 08:54:19;;;;;;;18.40;4.30;;;17.00;99.90;;;;;;5031460;28;20499;-63
2021/08/27 08:56:45;;;;;;;19.48;4.18;;;17.20;99.90;;;;;;5032269;28;20041;-61
2021/08/27 08:59:12;;;;;;;17.00;4.10;;;17.50;99.90;;;;;;5032006;28;20040;-59
2021/08/27 09:01:38;;;;;;;23.42;5.30;;;17.60;99.90;;;;;;5031984;28;20030;-62
2021/08/27 09:04:04;;;;;;;17.98;5.22;;;17.90;99.90;;;;;;5031330;28;20034;-60
2021/08/27 09:06:30;;;;;;;15.70;4.05;;;18.00;99.90;;;;;;5032023;28;20411;-58
2021/08/27 09:09:00;;;;;;;20.33;4.50;;;18.00;99.90;;;;;;5031693;28;20375;-60
2021/08/27 09:11:27;;;;;;;18.58;4.60;;;17.90;99.90;;;;;;5032124;28;20080;-58
2021/08/27 09:13:56;;;;;;;23.38;4.80;;;17.80;99.90;;;;;;5031338;28;20041;-59
2021/08/27 09:16:23;;;;;;;16.23;4.25;;;18.10;99.90;;;;;;5031860;28;20044;-60
2021/08/27 09:18:50;;;;;;;39.00;16.88;;;18.20;99.90;;;;;;5031154;28;20096;-62
2021/08/27 09:21:29;;;;;;;13.00;4.43;;;18.20;99.90;;;;;;5031971;28;20037;-59
2021/08/27 09:24:17;;;;;;;43.65;5.35;;;18.30;99.90;;;;;;5046196;28;20442;-58
2021/08/27 09:26:45;;;;;;;27.05;4.43;;;18.10;99.90;;;;;;5031992;28;20527;-58
2021/08/27 09:29:11;;;;;;;28.17;4.53;;;18.00;99.90;;;;;;5030675;28;20041;-60
2021/08/27 09:31:39;;;;;;;9.73;3.10;;;17.90;99.90;;;;;;5031666;28;20061;-59
2021/08/27 09:34:07;;;;;;;35.05;4.78;;;17.90;99.90;;;;;;5030599;28;22150;-60
2021/08/27 09:36:35;;;;;;;26.20;4.30;;;18.00;99.90;;;;;;5031834;28;20495;-61
2021/08/27 09:39:12;;;;;;;80.10;7.35;;;18.10;99.90;;;;;;5030527;28;20112;-60
2021/08/27 09:41:42;;;;;;;40.33;5.53;;;18.10;99.90;;;;;;5031654;28;20034;-60
2021/08/27 09:44:07;;;;;;;68.55;6.90;;;18.00;99.90;;;;;;5030418;28;20030;-60
2021/08/27 09:46:37;;;;;;;22.55;4.15;;;18.00;99.90;;;;;;5031684;28;20083;-60
2021/08/27 09:49:25;;;;;;;20.70;4.22;;;18.20;99.90;;;;;;5030196;28;20064;-61
2021/08/27 09:51:50;;;;;;;41.78;5.05;;;18.40;99.90;;;;;;5031142;28;20060;-58
2021/08/27 09:54:38;;;;;;;48.67;5.85;;;18.60;99.90;;;;;;5030438;28;20030;-59
2021/08/27 09:57:06;;;;;;;20.30;3.58;;;18.60;99.90;;;;;;5031292;28;20033;-59
2021/08/27 09:59:38;;;;;;;17.25;2.72;;;18.80;99.90;;;;;;5030503;28;20033;-60
2021/08/27 10:02:07;;;;;;;8.30;2.50;;;18.70;99.90;;;;;;5031038;28;20495;-60
2021/08/27 10:04:34;;;;;;;45.90;5.85;;;18.60;99.90;;;;;;5030291;28;20399;-59
2021/08/27 10:07:00;;;;;;;32.40;4.18;;;18.70;99.90;;;;;;5031226;28;20036;-59
2021/08/27 10:09:45;;;;;;;11.77;3.10;;;18.90;99.90;;;;;;5030082;28;20033;-60
2021/08/27 10:12:13;;;;;;;36.35;5.22;;;19.20;99.90;;;;;;5019576;28;20021;-57
2021/08/27 10:14:39;;;;;;;19.35;5.43;;;19.50;99.90;;;;;;5029940;28;20487;-59
2021/08/27 10:17:05;;;;;;;13.18;3.00;;;19.60;99.90;;;;;;5030865;28;20555;-59
2021/08/27 10:19:31;;;;;;;12.48;3.03;;;19.40;99.90;;;;;;5030019;28;20064;-59
2021/08/27 10:21:58;;;;;;;54.25;5.57;;;19.40;99.90;;;;;;5030566;28;20056;-60
2021/08/27 10:24:24;;;;;;;30.75;3.47;;;19.10;99.90;;;;;;5029532;28;20423;-61
2021/08/27 10:26:50;;;;;;;12.45;3.38;;;19.00;99.90;;;;;;5030845;28;20059;-60
2021/08/27 10:29:15;;;;;;;30.70;4.25;;;18.90;99.90;;;;;;5029495;28;20053;-60
2021/08/27 10:31:47;;;;;;;99.20;8.18;;;18.90;99.90;;;;;;5030695;28;20068;-59
2021/08/27 10:34:17;;;;;;;23.13;3.95;;;19.00;99.90;;;;;;5029818;28;20563;-58
2021/08/27 10:36:48;;;;;;;16.88;3.03;;;18.90;99.90;;;;;;5030870;28;20023;-60
2021/08/27 10:39:34;;;;;;;24.30;3.80;;;18.70;99.90;;;;;;5029850;28;20037;-59
2021/08/27 10:42:00;;;;;;;40.58;4.90;;;18.50;99.90;;;;;;5030846;28;20476;-59
2021/08/27 10:44:49;;;;;;;17.65;3.67;;;18.50;99.90;;;;;;5030063;28;20021;-60
2021/08/27 10:47:15;;;;;;;22.23;3.58;;;18.60;99.90;;;;;;5030755;28;20034;-59
2021/08/27 10:49:47;;;;;;;22.27;3.67;;;18.60;99.90;;;;;;5029945;28;20037;-59
2021/08/27 10:52:36;;;;;;;10.70;2.88;;;18.50;99.90;;;;;;5030577;28;20036;-58
2021/08/27 10:55:02;;;;;;;11.85;2.75;;;18.60;99.90;;;;;;5029819;28;20044;-59
2021/08/27 10:57:28;;;;;;;13.30;3.22;;;18.50;99.90;;;;;;5030542;28;20029;-60
2021/08/27 10:59:59;;;;;;;13.82;2.95;;;18.50;99.90;;;;;;5029597;28;20067;-59
2021/08/27 11:02:25;;;;;;;19.70;4.03;;;18.50;99.90;;;;;;5032197;28;20022;-59
2021/08/27 11:04:51;;;;;;;27.15;3.88;;;18.60;99.90;;;;;;5033455;28;20029;-60
2021/08/27 11:07:26;;;;;;;26.30;4.47;;;18.60;99.90;;;;;;5034586;28;20097;-59
2021/08/27 11:10:05;;;;;;;22.25;3.60;;;18.60;99.90;;;;;;5033466;28;20100;-59
2021/08/27 11:12:32;;;;;;;31.73;3.75;;;18.70;99.90;;;;;;5034310;28;20021;-61
2021/08/27 11:15:23;;;;;;;24.38;3.88;;;18.70;99.90;;;;;;5033449;28;20483;-59
2021/08/27 11:18:05;;;;;;;16.63;3.22;;;18.60;99.90;;;;;;5034323;28;20084;-61
2021/08/27 11:20:31;;;;;;;15.70;3.67;;;18.70;99.90;;;;;;5033085;28;20056;-60
2021/08/27 11:22:57;;;;;;;13.00;2.78;;;18.70;99.90;;;;;;5033983;28;20049;-59
2021/08/27 11:25:24;;;;;;;21.15;3.90;;;18.60;99.90;;;;;;5032719;28;20472;-60
2021/08/27 11:28:14;;;;;;;26.23;4.25;;;18.60;99.90;;;;;;5048983;28;20033;-60
2021/08/27 11:30:42;;;;;;;41.35;4.93;;;18.70;99.90;;;;;;5032580;28;20439;-59
2021/08/27 11:33:45;;;;;;;79.22;5.50;;;18.80;99.90;;;;;;5034016;28;20029;-61
2021/08/27 11:36:13;;;;;;;18.75;3.75;;;19.00;99.90;;;;;;5032408;28;20403;-59
2021/08/27 11:38:39;;;;;;;70.38;6.90;;;18.80;99.90;;;;;;5033894;28;20064;-60
2021/08/27 11:41:06;;;;;;;22.38;4.00;;;19.00;99.90;;;;;;5032717;28;20123;-60
2021/08/27 11:43:46;;;;;;;13.95;3.90;;;19.10;99.90;;;;;;5033723;28;20472;-61
2021/08/27 11:46:24;;;;;;;21.15;3.75;;;19.00;99.90;;;;;;5033397;28;20112;-59
2021/08/27 11:49:02;;;;;;;40.17;4.97;;;19.00;99.90;;;;;;5033279;28;20033;-59
2021/08/27 11:51:36;;;;;;;23.63;3.70;;;19.00;99.90;;;;;;5048753;28;20364;-61
2021/08/27 11:54:18;;;;;;;12.90;2.95;;;19.10;99.90;;;;;;5033203;28;20472;-60
2021/08/27 11:56:52;;;;;;;29.90;4.10;;;19.20;99.90;;;;;;5026890;28;20037;-60
2021/08/27 11:59:21;;;;;;;20.70;3.95;;;19.30;99.90;;;;;;5026991;28;20069;-61
2021/08/27 12:01:47;;;;;;;12.20;3.05;;;19.30;99.90;;;;;;5033220;28;20030;-59
2021/08/27 12:04:22;;;;;;;37.42;4.28;;;19.20;99.90;;;;;;5032979;28;20502;-60
2021/08/27 12:07:02;;;;;;;15.77;3.67;;;19.30;99.90;;;;;;5033265;28;20529;-59
2021/08/27 12:09:28;;;;;;;36.67;4.13;;;19.50;99.90;;;;;;5032646;28;20121;-59
2021/08/27 12:11:53;;;;;;;16.83;3.53;;;19.50;99.90;;;;;;5033075;28;20108;-61
2021/08/27 12:14:19;;;;;;;29.15;3.95;;;19.50;99.90;;;;;;5032024;28;20442;-60
2021/08/27 12:16:45;;;;;;;10.98;2.80;;;19.60;99.90;;;;;;5032724;28;20025;-61
2021/08/27 12:19:11;;;;;;;7.63;2.70;;;19.50;99.90;;;;;;5032060;28;20444;-62
2021/08/27 12:21:36;;;;;;;20.30;3.75;;;19.40;99.90;;;;;;5032728;28;20491;-60
2021/08/27 12:24:10;;;;;;;34.22;4.13;;;19.50;99.90;;;;;;5032415;28;20345;-59
2021/08/27 12:26:37;;;;;;;15.30;3.63;;;19.60;99.90;;;;;;5032768;28;20034;-60
2021/08/27 12:29:03;;;;;;;15.82;3.00;;;19.50;99.90;;;;;;5032335;28;20515;-61
2021/08/27 12:31:39;;;;;;;12.80;2.95;;;19.60;99.90;;;;;;5032558;28;20432;-58
2021/08/27 12:34:05;;;;;;;35.53;4.28;;;19.50;99.90;;;;;;5032366;28;20045;-60
2021/08/27 12:36:40;;;;;;;22.00;4.15;;;19.50;99.90;;;;;;5032495;28;20021;-60
2021/08/27 12:39:08;;;;;;;20.15;3.92;;;19.30;99.90;;;;;;5032465;28;20032;-59
2021/08/27 12:41:37;;;;;;;15.20;3.50;;;19.10;99.90;;;;;;5032603;28;20025;-60
2021/08/27 12:44:10;;;;;;;10.45;2.83;;;19.20;99.90;;;;;;5032608;28;20033;-61
2021/08/27 12:46:36;;;;;;;10.10;2.60;;;19.20;99.90;;;;;;5032620;28;20037;-60
2021/08/27 12:49:21;;;;;;;11.77;2.97;;;19.20;99.90;;;;;;5032656;28;20057;-59